• Join FlightAware (Why Join?)
  • Login
  • US Flag 
03:18PM EST


 

Airport Tracker/Info


-or-


 

Live Flight TrackerFlight Track Log ✈ N609C ✈ 12-Dec-2013 ✈ C62 - KRYV

Flight Track Log - Related Links

Times and Time Zones

All times are in EST time to prevent confusion due to time zone crossing. See the N609C flight status page for this flight to view local times or setup timezone preferences in your user account.

Time Position Orientation Groundspeed Altitude Reporting Facility
EST Latitude Longitude Course Direction KTS MPH feet Rate Location/Type
03:52PM 41.4608 -85.4181 256° West 101 116 5,900  Level Chicago Center
03:53PM 41.4517 -85.4647 255° West 106 122 6,600 600 Climbing Chicago Center
03:54PM 41.4456 -85.5022 258° West 105 121 7,200 540 Climbing Chicago Center
03:55PM 41.5757 -85.4599 305° West  Level Estimated
03:55PM 41.4389 -85.5392 256° West 103 119 7,800  Level Chicago Center
03:56PM 41.5928 -85.4932 305° West  Level Estimated
03:56PM 41.4328 -85.5767 258° West 103 119 8,100  Level Chicago Center
03:57PM 41.4250 -85.6189 256° West 115 132 8,100  Level Chicago Center
03:58PM 41.4167 -85.6675 257° West 125 144 8,100  Level Chicago Center
03:59PM 41.4072 -85.7233 257° West 129 148 8,100  Level Chicago Center
04:00PM 41.3972 -85.7725 255° West 135 155 8,100  Level Chicago Center
04:01PM 41.3897 -85.8206 258° West 133 153 8,100 -60 Level Chicago Center
04:02PM 41.3806 -85.8681 256° West 134 154 8,000 -60 Descending Chicago Center
04:03PM 41.3717 -85.9172 256° West 135 155 8,000  Level Chicago Center
04:04PM 41.3628 -85.9664 256° West 136 157 8,000  Level Chicago Center
04:05PM 41.3514 -86.0247 255° West 137 158 8,000  Level Chicago Center
04:06PM 41.3436 -86.0739 258° West 137 158 8,000  Level Chicago Center
04:07PM 41.3347 -86.1239 257° West 138 159 8,000  Level Chicago Center
04:08PM 41.3250 -86.1733 255° West 139 160 8,000  Level Chicago Center
04:09PM 41.3158 -86.2208 256° West 134 154 8,000  Level Chicago Center
04:10PM 41.3069 -86.2700 256° West 135 155 8,000  Level Chicago Center
04:11PM 41.2967 -86.3289 257° West 137 158 8,000  Level Chicago Center
04:12PM 41.2878 -86.3781 256° West 137 158 8,000  Level Chicago Center
04:14PM 41.2778 -86.4269 255° West 137 158 8,000  Level Chicago Center
04:15PM 41.2689 -86.4756 256° West 136 157 8,000  Level Chicago Center
04:16PM 41.2611 -86.5244 258° West 137 158 8,000  Level Chicago Center
04:17PM 41.2517 -86.5731 256° West 136 157 8,000  Level Chicago Center
04:18PM 41.2406 -86.6319 256° West 136 157 8,000  Level Chicago Center
04:19PM 41.2317 -86.6814 257° West 138 159 8,000  Level Chicago Center
04:20PM 41.2228 -86.7281 256° West 138 159 8,000  Level Chicago Center
04:21PM 41.2111 -86.7881 256° West 139 160 8,000  Level Chicago Center
04:22PM 41.2025 -86.8372 257° West 138 159 8,000  Level Chicago Center
04:23PM 41.1925 -86.8878 255° West 140 161 8,000  Level Chicago Center
04:24PM 41.1836 -86.9369 257° West 139 160 8,000 -60 Level Chicago Center
04:25PM 41.1889 -86.9833 279° West 131 151 7,900 -60 Descending Chicago Center
04:26PM 41.1947 -87.0306 279° West 130 150 7,900  Level Chicago Center
04:27PM 41.2008 -87.0886 278° West 132 152 8,000  Climbing Chicago Center
04:28PM 41.2086 -87.1372 282° West 133 153 8,000  Level Chicago Center
04:29PM 41.2147 -87.1861 279° West 134 154 8,000 -60 Level Chicago Center
04:30PM 41.2208 -87.2350 279° West 134 154 7,900  Descending Chicago Center
04:31PM 41.2275 -87.2833 280° West 135 155 8,000  Climbing Chicago Center
04:32PM 41.2331 -87.3322 279° West 134 154 7,900 -60 Descending Chicago Center
04:33PM 41.2419 -87.3911 281° West 135 155 7,900  Level Chicago Center
04:34PM 41.2481 -87.4397 280° West 134 154 8,000  Climbing Chicago Center
04:35PM 41.2556 -87.4892 281° West 136 157 7,900  Descending Chicago Center
04:36PM 41.2611 -87.5383 279° West 135 155 8,000  Climbing Chicago Center
04:37PM 41.2669 -87.5878 279° West 135 155 7,900 -60 Descending Chicago Center
04:38PM 41.2736 -87.6364 280° West 135 155 7,900  Level Chicago Center
04:39PM 41.2811 -87.6947 280° West 133 153 7,900  Level Chicago Center
04:40PM 41.2875 -87.7419 280° West 132 152 7,900  Level Chicago Center
04:41PM 41.2939 -87.7914 280° West 134 154 8,000  Climbing Chicago Center
04:42PM 41.3003 -87.8394 280° West 133 153 8,000  Level Chicago Center
04:44PM 41.3061 -87.8867 279° West 131 151 8,100  Climbing Chicago Center
04:45PM 41.3119 -87.9336 279° West 129 148 8,100  Level Chicago Center
04:46PM 41.3194 -87.9917 280° West 132 152 8,100  Level Chicago Center
04:47PM 41.3256 -88.0400 280° West 131 151 8,100 -60 Level Chicago Center
04:48PM 41.3314 -88.0883 279° West 131 151 8,000 -60 Descending Chicago Center
04:49PM 41.3375 -88.1372 279° West 132 152 8,000  Level Chicago Center
04:50PM 41.3431 -88.1856 279° West 132 152 8,100  Climbing Chicago Center
04:51PM 41.3489 -88.2356 279° West 134 154 8,100  Level Chicago Center
04:52PM 41.3547 -88.2831 279° West 133 153 8,100 -60 Level Chicago Center
04:53PM 41.3622 -88.3431 279° West 135 155 8,000 -60 Descending Chicago Center
04:54PM 41.3681 -88.3931 279° West 136 157 8,000  Level Chicago Center
04:55PM 41.3739 -88.4417 279° West 135 155 8,000  Level Chicago Center
04:56PM 41.3797 -88.4914 279° West 135 155 8,100  Climbing Chicago Center
04:57PM 41.3878 -88.5386 283° West 133 153 8,000 -60 Descending Chicago Center
04:58PM 41.4089 -88.5806 304° West 134 154 8,000  Level Chicago Center
04:59PM 41.4311 -88.6311 300° West 134 154 8,000  Level Chicago Center
05:00PM 41.4497 -88.6747 300° West 134 154 8,000  Level Chicago Center
05:01PM 41.4681 -88.7172 300° West 134 154 8,100  Climbing Chicago Center
05:02PM 41.4864 -88.7594 300° West 133 153 8,100  Level Chicago Center
05:03PM 41.5053 -88.8011 301° West 132 152 8,100  Level Chicago Center
05:04PM 41.5275 -88.8514 301° West 132 152 8,100  Level Chicago Center
05:05PM 41.5461 -88.8933 301° West 132 152 8,100  Level Chicago Center
05:07PM 41.5914 -88.9653 North 137 158 8,100 -60 Level Chicago Center
05:08PM 41.6350 -88.9522 13° North 152 175 8,000 -60 Descending Chicago Center
05:09PM 41.6778 -88.9425 10° North 156 180 8,000  Level Chicago Center
05:10PM 41.7300 -88.9367 North 157 181 8,000  Level Chicago Center
05:11PM 41.7750 -88.9308 North 159 183 8,100  Climbing Chicago Center
05:13PM 41.8169 -88.9244 North 156 180 8,100  Level Chicago Center
05:14PM 41.8586 -88.9186 North 153 176 8,100 -60 Level Chicago Center
05:15PM 41.8997 -88.9128 North 151 174 8,000 -60 Descending Chicago Center
05:16PM 41.9431 -88.9061 North 153 176 8,000  Level Chicago Center
05:17PM 41.9939 -88.8992 North 154 177 8,000  Level Chicago Center
05:18PM 42.0378 -88.8922 North 155 178 8,000  Level Chicago Center
05:19PM 42.0811 -88.8856 North 156 180 8,000  Level Chicago Center
05:20PM 42.1250 -88.8789 North 157 181 8,000  Level Chicago Center
05:21PM 42.1664 -88.8747 North 155 178 8,000  Level Chicago Center
05:22PM 42.2086 -88.8661 North 153 176 8,000  Level Chicago Center
05:23PM 42.2592 -88.8603 North 151 174 8,000  Level Chicago Center
05:24PM 42.2997 -88.8558 North 149 171 8,000  Level Chicago Center
05:25PM 42.3406 -88.8497 North 149 171 8,000  Level Chicago Center
05:26PM 42.3831 -88.8431 North 150 173 8,000  Level Chicago Center
05:27PM 42.4253 -88.8364 North 152 175 8,000 -60 Level Chicago Center
05:28PM 42.4764 -88.8281 North 153 176 7,900 -300 Descending Chicago Center
05:29PM 42.5214 -88.8222 North 158 182 7,400 -480 Descending Chicago Center
05:30PM 42.5686 -88.8147 North 163 188 7,000 -420 Descending Chicago Center
05:31PM 42.6153 -88.8067 North 166 191 6,600 -480 Descending Chicago Center
05:32PM 42.6625 -88.8025 North 169 194 6,100 -540 Descending Chicago Center
05:33PM 42.7089 -88.7950 North 168 193 5,600 -540 Descending Chicago Center
05:34PM 42.7678 -88.7839 North 176 203 5,100 -360 Descending Chicago Center
05:35PM 42.8156 -88.7767 North 176 203 4,900 -60 Descending Chicago Center
05:36PM 42.8611 -88.7697 North 170 196 5,000  Climbing Chicago Center
05:37PM 42.9061 -88.7631 North 166 191 5,000 -300 Level Chicago Center
05:38PM 42.9522 -88.7558 North 165 190 4,500 -540 Descending Chicago Center
05:39PM 43.0017 -88.7489 North 171 197 3,900 -600 Descending Chicago Center
05:41PM 43.0682 -88.7326 10° North  Level FlightAware Approximate
05:48PM 43.1667 -88.7167 North  Level FlightAware Approximate
05:49PM 43.1696 -88.7232 North  Level Estimated
05:50PM 43.1667 -88.7167 North  Level FlightAware Approximate